createdAt,value
2019-05-26T00:00:26.069Z,9.50
2019-05-26T00:01:05.019Z,9.18
2019-05-26T00:01:44.519Z,9.40
2019-05-26T00:02:23.935Z,9.75
2019-05-26T00:03:03.127Z,9.30
2019-05-26T00:03:42.407Z,9.30
2019-05-26T00:04:22.327Z,10.43
2019-05-26T00:05:01.776Z,10.50
2019-05-26T00:05:41.482Z,9.93
2019-05-26T00:06:20.926Z,9.35
2019-05-26T00:06:59.913Z,9.50
2019-05-26T00:07:39.947Z,9.05
2019-05-26T00:08:19.845Z,9.45
2019-05-26T00:09:00.637Z,8.65
2019-05-26T00:09:40.083Z,9.00
2019-05-26T00:10:19.718Z,8.38
2019-05-26T00:10:58.546Z,9.58
2019-05-26T00:11:37.513Z,9.33
2019-05-26T00:12:16.500Z,8.63
2019-05-26T00:12:54.884Z,9.13
2019-05-26T00:13:33.805Z,9.20
2019-05-26T00:14:12.863Z,9.05
2019-05-26T00:14:51.826Z,8.10
2019-05-26T00:15:31.633Z,9.70
2019-05-26T00:16:15.036Z,9.10
2019-05-26T00:16:54.367Z,9.95
2019-05-26T00:17:34.095Z,9.80
2019-05-26T00:18:13.836Z,9.30
2019-05-26T00:18:52.887Z,10.60
2019-05-26T00:19:32.499Z,9.65
2019-05-26T00:20:12.089Z,10.23
2019-05-26T00:20:51.440Z,9.45
2019-05-26T00:21:31.047Z,9.48
2019-05-26T00:22:11.264Z,9.30
2019-05-26T00:22:50.433Z,9.40
2019-05-26T00:23:30.125Z,9.93
2019-05-26T00:24:09.707Z,8.75
2019-05-26T00:24:49.023Z,9.85
2019-05-26T00:25:28.994Z,8.93
2019-05-26T00:26:08.351Z,9.08
2019-05-26T00:26:47.196Z,9.73
2019-05-26T00:27:26.880Z,9.63
2019-05-26T00:28:06.204Z,9.40
2019-05-26T00:28:45.243Z,9.68
2019-05-26T00:29:25.480Z,9.48
2019-05-26T00:30:05.580Z,9.33
2019-05-26T00:30:44.593Z,9.40
2019-05-26T00:31:42.247Z,9.83
2019-05-26T00:32:22.187Z,8.70
2019-05-26T00:33:01.140Z,8.95
2019-05-26T00:33:40.640Z,8.73
2019-05-26T00:34:20.404Z,9.40
2019-05-26T00:34:59.527Z,9.40
2019-05-26T00:35:39.144Z,8.93
2019-05-26T00:36:18.744Z,8.93
2019-05-26T00:36:57.813Z,9.80
2019-05-26T00:37:48.268Z,10.50
2019-05-26T00:38:19.463Z,9.65
2019-05-26T00:38:58.332Z,9.55
2019-05-26T00:39:38.720Z,9.80
2019-05-26T00:40:19.020Z,10.75
2019-05-26T00:40:59.347Z,9.10
2019-05-26T00:41:39.031Z,9.98
2019-05-26T00:42:18.503Z,9.48
2019-05-26T00:42:57.251Z,8.58
2019-05-26T00:43:37.735Z,9.80
2019-05-26T00:44:17.402Z,9.03
2019-05-26T00:44:57.031Z,9.48
2019-05-26T00:45:36.828Z,10.05
2019-05-26T00:46:16.569Z,10.90
2019-05-26T00:46:56.323Z,9.85
2019-05-26T00:47:36.236Z,9.58
2019-05-26T00:48:15.959Z,9.50
2019-05-26T00:48:55.233Z,10.23
2019-05-26T00:49:35.095Z,9.98
2019-05-26T00:50:14.487Z,10.10
2019-05-26T00:50:53.428Z,10.18
2019-05-26T00:51:32.771Z,10.30
2019-05-26T00:52:12.179Z,10.68
2019-05-26T00:52:51.131Z,9.70
2019-05-26T00:53:30.962Z,10.10
2019-05-26T00:54:10.907Z,9.85
2019-05-26T00:54:49.939Z,10.03
2019-05-26T00:55:29.220Z,9.90
2019-05-26T00:56:08.956Z,10.25
2019-05-26T00:56:48.135Z,10.03
2019-05-26T00:57:28.454Z,9.83
2019-05-26T00:58:09.004Z,9.50
2019-05-26T00:58:48.138Z,9.38
2019-05-26T00:59:27.603Z,8.83
2019-05-26T01:00:07.271Z,10.38
2019-05-26T01:00:46.817Z,10.18
2019-05-26T01:01:27.328Z,9.65
2019-05-26T01:02:06.828Z,10.30
2019-05-26T01:02:45.989Z,10.50
2019-05-26T01:03:26.819Z,10.35
2019-05-26T01:04:06.458Z,10.58
2019-05-26T01:04:45.439Z,10.40
2019-05-26T01:05:24.740Z,10.28
2019-05-26T01:06:04.316Z,10.20
2019-05-26T01:06:43.977Z,10.18
2019-05-26T01:07:23.777Z,10.35
2019-05-26T01:08:06.616Z,10.03
2019-05-26T01:08:44.297Z,10.88
2019-05-26T01:09:24.121Z,10.68
2019-05-26T01:10:03.845Z,10.30
2019-05-26T01:10:43.276Z,10.85
2019-05-26T01:11:22.779Z,10.58
2019-05-26T01:12:02.414Z,11.43
2019-05-26T01:12:41.497Z,12.33
2019-05-26T01:13:21.172Z,9.75
2019-05-26T01:14:01.092Z,10.93
2019-05-26T01:14:40.179Z,11.78
2019-05-26T01:15:19.930Z,11.90
2019-05-26T01:16:00.076Z,11.45
2019-05-26T01:16:39.240Z,10.63
2019-05-26T01:17:21.239Z,10.68
2019-05-26T01:18:00.831Z,11.53
2019-05-26T01:18:40.664Z,11.68
2019-05-26T01:19:19.604Z,10.53
2019-05-26T01:19:58.586Z,11.35
2019-05-26T01:20:38.260Z,10.82
2019-05-26T01:21:17.818Z,11.33
2019-05-26T01:21:57.804Z,11.25
2019-05-26T01:22:36.823Z,10.95
2019-05-26T01:23:16.468Z,11.50
2019-05-26T01:23:56.224Z,11.80
2019-05-26T01:24:35.620Z,11.63
2019-05-26T01:25:15.293Z,11.18
2019-05-26T01:25:55.111Z,12.75
2019-05-26T01:26:33.977Z,11.43
2019-05-26T01:27:13.627Z,12.58
2019-05-26T01:27:53.427Z,13.15
2019-05-26T01:28:31.827Z,11.78
2019-05-26T01:29:10.780Z,11.73
2019-05-26T01:29:49.738Z,11.95
2019-05-26T01:30:37.803Z,11.50
2019-05-26T01:31:16.799Z,12.00
2019-05-26T01:31:55.847Z,11.35
2019-05-26T01:32:34.210Z,12.18
2019-05-26T01:33:13.191Z,12.10
2019-05-26T01:33:52.155Z,11.60
2019-05-26T01:34:30.633Z,12.20
2019-05-26T01:35:09.980Z,11.45
2019-05-26T01:36:07.189Z,13.28
2019-05-26T01:36:46.151Z,12.10
2019-05-26T01:37:25.511Z,12.50
2019-05-26T01:38:20.635Z,11.60
2019-05-26T01:38:45.312Z,13.98
2019-05-26T01:39:25.099Z,12.85
2019-05-26T01:40:04.763Z,12.13
2019-05-26T01:40:47.498Z,12.90
2019-05-26T01:41:27.383Z,12.65
2019-05-26T01:42:06.843Z,12.78
2019-05-26T01:42:46.459Z,12.35
2019-05-26T01:43:26.085Z,12.25
2019-05-26T01:44:24.882Z,13.13
2019-05-26T01:45:03.504Z,13.00
2019-05-26T01:45:43.284Z,11.50
2019-05-26T01:46:23.004Z,12.30
2019-05-26T01:47:01.959Z,12.80
2019-05-26T01:47:41.542Z,11.95
2019-05-26T01:48:21.420Z,12.23
2019-05-26T01:49:00.686Z,12.23
2019-05-26T01:49:41.085Z,11.93
2019-05-26T01:50:21.178Z,12.82
2019-05-26T01:51:00.375Z,12.45
2019-05-26T01:51:39.946Z,11.95
2019-05-26T01:52:19.595Z,11.45
2019-05-26T01:52:58.826Z,11.95
2019-05-26T01:53:38.783Z,12.85
2019-05-26T01:54:18.483Z,12.75
2019-05-26T01:54:57.839Z,13.08
2019-05-26T01:55:38.239Z,13.72
2019-05-26T01:56:18.495Z,12.53
2019-05-26T01:57:57.080Z,13.25
2019-05-26T01:58:36.579Z,13.30
2019-05-26T01:59:15.915Z,13.05
2019-05-26T01:59:56.083Z,13.90
2019-05-26T02:00:35.958Z,14.38
2019-05-26T02:01:14.627Z,12.23
2019-05-26T02:01:54.120Z,12.65
2019-05-26T02:02:33.688Z,12.98
2019-05-26T02:03:12.766Z,12.55
2019-05-26T02:03:52.344Z,13.45
2019-05-26T02:04:32.755Z,13.13
2019-05-26T02:05:11.832Z,12.80
2019-05-26T02:05:51.774Z,11.90
2019-05-26T02:06:31.341Z,12.50
2019-05-26T02:07:10.075Z,12.78
2019-05-26T02:07:49.787Z,12.90
2019-05-26T02:08:38.877Z,13.05
2019-05-26T02:09:11.129Z,12.90
2019-05-26T02:09:50.920Z,13.45
2019-05-26T02:10:30.731Z,13.30
2019-05-26T02:11:10.127Z,12.68
2019-05-26T02:11:49.831Z,12.05
2019-05-26T02:12:29.550Z,12.68
2019-05-26T02:13:08.727Z,12.03
2019-05-26T02:13:48.419Z,12.80
2019-05-26T02:14:27.996Z,12.23
2019-05-26T02:15:07.256Z,12.93
2019-05-26T02:15:47.691Z,12.80
2019-05-26T02:16:27.517Z,12.58
2019-05-26T02:17:07.379Z,13.22
2019-05-26T02:17:47.111Z,13.05
2019-05-26T02:18:26.679Z,12.98
2019-05-26T02:19:05.755Z,13.30
2019-05-26T02:19:45.367Z,13.43
2019-05-26T02:20:25.015Z,13.00
2019-05-26T02:21:04.155Z,12.93
2019-05-26T02:21:43.691Z,12.85
2019-05-26T02:22:24.059Z,12.70
2019-05-26T02:23:03.581Z,13.60
2019-05-26T02:23:43.189Z,12.90
2019-05-26T02:24:22.859Z,13.35
2019-05-26T02:25:01.907Z,13.75
2019-05-26T02:25:41.816Z,12.98
2019-05-26T02:26:21.869Z,13.43
2019-05-26T02:27:01.403Z,13.00
2019-05-26T02:27:41.711Z,13.05
2019-05-26T02:28:21.494Z,12.80
2019-05-26T02:29:00.620Z,14.68
2019-05-26T02:29:40.407Z,16.82
2019-05-26T02:30:20.192Z,15.58
2019-05-26T02:30:59.318Z,16.70
2019-05-26T02:31:39.080Z,16.93
2019-05-26T02:32:19.141Z,16.85
2019-05-26T02:32:58.611Z,15.85
2019-05-26T02:33:38.390Z,15.05
2019-05-26T02:34:17.799Z,15.05
2019-05-26T02:34:57.081Z,15.83
2019-05-26T02:35:37.022Z,16.10
2019-05-26T02:36:18.744Z,16.70
2019-05-26T02:36:58.501Z,15.63
2019-05-26T02:37:38.275Z,16.15
2019-05-26T02:38:17.949Z,14.90
2019-05-26T02:39:02.872Z,15.88
2019-05-26T02:39:37.939Z,15.90
2019-05-26T02:40:17.772Z,14.60
2019-05-26T02:40:57.613Z,14.98
2019-05-26T02:41:37.214Z,15.78
2019-05-26T02:42:17.022Z,15.95
2019-05-26T02:42:56.124Z,16.15
2019-05-26T02:43:35.777Z,15.63
2019-05-26T02:44:15.554Z,18.32
2019-05-26T02:44:59.054Z,17.32
2019-05-26T02:45:35.801Z,16.35
2019-05-26T02:46:15.700Z,16.82
2019-05-26T02:46:55.165Z,17.50
2019-05-26T02:47:34.947Z,16.93
2019-05-26T02:48:16.801Z,17.02
2019-05-26T02:48:55.921Z,16.37
2019-05-26T02:49:35.577Z,17.12
2019-05-26T02:50:16.242Z,16.82
2019-05-26T02:50:56.055Z,17.07
2019-05-26T02:51:35.829Z,16.02
2019-05-26T02:52:15.536Z,15.83
2019-05-26T02:52:54.554Z,16.17
2019-05-26T02:53:35.862Z,16.73
2019-05-26T02:54:15.552Z,15.53
2019-05-26T02:54:54.761Z,16.48
2019-05-26T02:55:34.485Z,17.07
2019-05-26T02:56:14.095Z,16.20
2019-05-26T02:56:53.134Z,17.17
2019-05-26T02:57:33.143Z,16.45
2019-05-26T02:58:13.032Z,17.00
2019-05-26T02:58:52.479Z,16.82
2019-05-26T02:59:32.196Z,15.72
2019-05-26T03:00:12.321Z,14.78
2019-05-26T03:00:51.471Z,16.07
2019-05-26T03:01:32.445Z,16.95
2019-05-26T03:02:12.071Z,15.70
2019-05-26T03:02:51.260Z,16.57
2019-05-26T03:03:31.045Z,15.88
2019-05-26T03:04:10.631Z,16.25
2019-05-26T03:04:50.866Z,15.95
2019-05-26T03:05:31.971Z,15.90
2019-05-26T03:06:11.741Z,17.00
2019-05-26T03:06:51.073Z,16.10
2019-05-26T03:07:30.965Z,15.60
2019-05-26T03:08:10.323Z,16.57
2019-05-26T03:08:49.650Z,15.53
2019-05-26T03:09:29.587Z,15.90
2019-05-26T03:10:10.269Z,15.30
2019-05-26T03:10:49.274Z,15.95
2019-05-26T03:11:29.085Z,15.90
2019-05-26T03:12:10.227Z,16.65
2019-05-26T03:12:50.895Z,15.78
2019-05-26T03:13:30.725Z,16.12
2019-05-26T03:14:10.462Z,16.17
2019-05-26T03:14:49.816Z,16.00
2019-05-26T03:15:29.202Z,15.88
2019-05-26T03:16:08.830Z,16.70
2019-05-26T03:16:48.168Z,16.48
2019-05-26T03:17:28.237Z,16.90
2019-05-26T03:18:48.133Z,16.12
2019-05-26T03:19:27.135Z,17.10
2019-05-26T03:20:06.102Z,16.57
2019-05-26T03:20:44.513Z,16.10
2019-05-26T03:21:24.618Z,16.30
2019-05-26T03:22:04.213Z,16.77
2019-05-26T03:22:44.464Z,15.93
2019-05-26T03:23:23.467Z,16.85
2019-05-26T03:24:02.839Z,16.82
2019-05-26T03:24:41.748Z,16.60
2019-05-26T03:25:22.382Z,15.13
2019-05-26T03:26:01.823Z,17.10
2019-05-26T03:26:40.253Z,16.40
2019-05-26T03:27:19.411Z,16.23
2019-05-26T03:27:58.739Z,17.95
2019-05-26T03:28:37.148Z,16.37
2019-05-26T03:29:17.183Z,16.42
2019-05-26T03:29:56.407Z,17.37
2019-05-26T03:30:34.951Z,16.87
2019-05-26T03:31:14.744Z,16.12
2019-05-26T03:31:54.066Z,16.50
2019-05-26T03:32:33.153Z,16.67
2019-05-26T03:33:12.636Z,16.05
2019-05-26T03:33:53.293Z,17.73
2019-05-26T03:34:32.252Z,16.20
2019-05-26T03:35:12.799Z,16.55
2019-05-26T03:35:52.164Z,15.90
2019-05-26T03:36:31.269Z,15.55
2019-05-26T03:37:11.100Z,16.62
2019-05-26T03:37:50.217Z,16.30
2019-05-26T03:38:29.061Z,16.77
2019-05-26T03:39:10.357Z,16.90
2019-05-26T03:39:49.840Z,16.85
2019-05-26T03:41:10.046Z,15.68
2019-05-26T03:41:51.772Z,17.25
2019-05-26T03:42:31.539Z,17.77
2019-05-26T03:43:10.607Z,17.32
2019-05-26T03:43:50.377Z,17.32
2019-05-26T03:44:30.669Z,17.35
2019-05-26T03:45:10.372Z,17.32
2019-05-26T03:46:21.107Z,17.60
2019-05-26T03:47:00.248Z,16.77
2019-05-26T03:47:40.282Z,19.67
2019-05-26T03:48:19.874Z,17.62
2019-05-26T03:48:59.502Z,16.82
2019-05-26T03:49:39.025Z,16.77
2019-05-26T03:50:19.266Z,17.27
2019-05-26T03:55:49.777Z,18.27
2019-05-26T03:56:28.213Z,17.60
2019-05-26T03:57:08.035Z,17.05
2019-05-26T03:57:48.954Z,17.80
2019-05-26T03:58:27.325Z,19.35
2019-05-26T03:59:07.485Z,17.45
2019-05-26T03:59:46.507Z,18.00
2019-05-26T04:00:25.714Z,17.85
2019-05-26T04:01:05.224Z,17.35
2019-05-26T04:01:44.942Z,17.30
2019-05-26T04:02:24.662Z,19.00
2019-05-26T04:03:06.579Z,19.52
2019-05-26T04:03:46.164Z,18.17
2019-05-26T04:04:25.292Z,17.80
2019-05-26T04:05:04.889Z,16.77
2019-05-26T04:06:24.300Z,17.90
2019-05-26T04:07:03.841Z,18.32
2019-05-26T04:07:43.309Z,18.07
2019-05-26T04:08:22.225Z,18.55
2019-05-26T04:09:01.789Z,18.25
2019-05-26T04:10:02.645Z,17.85
2019-05-26T04:10:22.744Z,18.95
2019-05-26T04:11:02.497Z,18.30
2019-05-26T04:12:29.614Z,18.10
2019-05-26T04:13:09.414Z,18.27
2019-05-26T04:13:48.979Z,19.20
2019-05-26T04:14:28.122Z,18.87
2019-05-26T04:15:07.920Z,17.75
2019-05-26T04:15:47.556Z,20.00
2019-05-26T04:16:26.512Z,18.85
2019-05-26T04:17:06.250Z,17.73
2019-05-26T04:17:45.814Z,18.73
2019-05-26T04:18:24.851Z,18.65
2019-05-26T04:19:04.256Z,18.70
2019-05-26T04:19:44.671Z,19.60
2019-05-26T04:20:23.720Z,19.92
2019-05-26T04:21:03.918Z,19.25
2019-05-26T04:21:43.568Z,18.65
2019-05-26T04:22:22.631Z,19.48
2019-05-26T04:23:02.230Z,19.10
2019-05-26T04:23:42.875Z,19.02
2019-05-26T04:24:21.944Z,19.15
2019-05-26T04:25:03.611Z,18.23
2019-05-26T04:25:44.296Z,19.35
2019-05-26T04:26:23.123Z,19.30
2019-05-26T04:27:02.704Z,19.57
2019-05-26T04:27:45.331Z,19.20
2019-05-26T04:28:26.615Z,19.30
2019-05-26T04:29:06.122Z,19.10
2019-05-26T04:29:46.942Z,19.15
2019-05-26T04:30:26.038Z,18.15
2019-05-26T04:31:05.542Z,19.40
2019-05-26T04:31:45.057Z,18.75
2019-05-26T04:32:24.276Z,20.12
2019-05-26T04:33:04.065Z,19.07
2019-05-26T04:33:43.552Z,18.48
2019-05-26T04:34:22.844Z,18.57
2019-05-26T04:35:02.415Z,18.73
2019-05-26T04:35:41.669Z,17.62
2019-05-26T04:36:20.907Z,18.92
2019-05-26T04:37:00.360Z,18.23
2019-05-26T04:37:40.225Z,19.10
2019-05-26T04:38:19.487Z,19.23
2019-05-26T04:38:58.848Z,18.82
2019-05-26T04:39:38.689Z,18.70
2019-05-26T04:40:26.504Z,19.32
2019-05-26T04:40:58.380Z,20.15
2019-05-26T04:42:51.237Z,19.67
2019-05-26T04:43:30.321Z,19.30
2019-05-26T04:44:09.404Z,19.25
2019-05-26T04:44:48.330Z,20.10
2019-05-26T04:45:27.664Z,19.42
2019-05-26T04:46:06.843Z,19.82
2019-05-26T04:46:46.005Z,18.70
2019-05-26T04:47:25.051Z,18.85
2019-05-26T04:48:04.695Z,19.05
2019-05-26T04:48:43.127Z,19.80
2019-05-26T04:49:23.195Z,19.35
2019-05-26T04:50:02.552Z,19.25
2019-05-26T04:50:41.405Z,19.23
2019-05-26T04:51:21.106Z,17.73
2019-05-26T04:52:01.165Z,19.20
2019-05-26T04:52:40.248Z,20.30
2019-05-26T04:53:19.736Z,18.02
2019-05-26T04:53:59.180Z,19.75
2019-05-26T04:54:38.248Z,19.10
2019-05-26T04:55:20.924Z,19.65
2019-05-26T04:56:00.931Z,20.57
2019-05-26T04:56:40.109Z,20.60
2019-05-26T04:57:19.902Z,19.87
2019-05-26T04:57:59.674Z,21.27
2019-05-26T04:58:39.091Z,20.27
2019-05-26T04:59:18.826Z,19.35
2019-05-26T04:59:59.115Z,20.60
2019-05-26T05:00:38.216Z,20.23
2019-05-26T05:01:17.995Z,20.37
2019-05-26T05:01:57.930Z,19.23
2019-05-26T05:02:36.819Z,19.83
2019-05-26T05:03:16.244Z,20.37
2019-05-26T05:03:55.811Z,18.92
2019-05-26T05:04:34.831Z,21.35
2019-05-26T05:05:14.737Z,20.17
2019-05-26T05:05:54.244Z,22.85
2019-05-26T05:06:33.120Z,21.40
2019-05-26T05:07:12.506Z,21.75
2019-05-26T05:07:52.141Z,19.82
2019-05-26T05:08:31.302Z,21.00
2019-05-26T05:09:11.643Z,20.75
2019-05-26T05:09:51.418Z,21.30
2019-05-26T05:10:42.035Z,20.90
2019-05-26T05:11:12.178Z,20.60
2019-05-26T05:11:52.016Z,20.40
2019-05-26T05:12:31.956Z,21.17
2019-05-26T05:13:11.428Z,21.62
2019-05-26T05:13:50.799Z,22.02
2019-05-26T05:14:30.155Z,22.40
2019-05-26T05:15:09.754Z,23.02
2019-05-26T05:15:48.926Z,22.30
2019-05-26T05:16:27.824Z,23.00
2019-05-26T05:17:07.682Z,22.80
2019-05-26T05:17:47.267Z,23.42
2019-05-26T05:18:26.519Z,21.10
2019-05-26T05:19:05.904Z,21.75
2019-05-26T05:19:45.936Z,21.80
2019-05-26T05:20:24.999Z,23.62
2019-05-26T05:21:04.447Z,24.93
2019-05-26T05:21:44.363Z,24.55
2019-05-26T05:22:23.226Z,23.00
2019-05-26T05:23:03.071Z,23.53
2019-05-26T05:23:42.539Z,22.25
2019-05-26T05:24:22.128Z,23.00
2019-05-26T05:25:01.824Z,22.65
2019-05-26T05:25:42.175Z,22.40
2019-05-26T05:26:21.749Z,23.55
2019-05-26T05:27:01.478Z,26.17
2019-05-26T05:27:40.805Z,25.70
2019-05-26T05:28:19.931Z,23.50
2019-05-26T05:28:59.401Z,26.37
2019-05-26T05:29:38.939Z,29.13
2019-05-26T05:30:18.098Z,26.17
2019-05-26T05:30:57.645Z,27.00
2019-05-26T05:31:37.115Z,27.30
2019-05-26T05:32:16.199Z,28.42
2019-05-26T05:32:56.037Z,27.77
2019-05-26T05:33:35.731Z,27.80
2019-05-26T05:34:14.788Z,26.23
2019-05-26T05:34:54.199Z,27.93
2019-05-26T05:35:33.459Z,29.00
2019-05-26T05:36:12.303Z,30.00
2019-05-26T05:36:51.813Z,29.27
2019-05-26T05:37:31.112Z,28.43
2019-05-26T05:38:10.193Z,29.92
2019-05-26T05:38:50.067Z,27.40
2019-05-26T05:39:29.849Z,27.60
2019-05-26T05:40:09.465Z,28.47
2019-05-26T05:40:58.795Z,26.60
2019-05-26T05:41:30.760Z,24.17
2019-05-26T05:42:09.951Z,25.13
2019-05-26T05:42:49.375Z,25.60
2019-05-26T05:43:28.826Z,28.00
2019-05-26T05:44:07.690Z,28.60
2019-05-26T05:44:47.291Z,26.23
2019-05-26T05:45:26.579Z,27.07
2019-05-26T05:46:05.415Z,27.60
2019-05-26T05:46:46.837Z,27.60
2019-05-26T05:47:26.287Z,28.70
2019-05-26T05:48:05.352Z,26.40
2019-05-26T05:48:44.896Z,26.00
2019-05-26T05:49:24.060Z,27.42
2019-05-26T05:50:03.103Z,28.52
2019-05-26T05:50:42.644Z,28.83
2019-05-26T05:51:22.502Z,29.20
2019-05-26T05:52:01.895Z,28.53
2019-05-26T05:52:41.827Z,28.77
2019-05-26T05:53:21.419Z,29.90
2019-05-26T05:54:00.418Z,29.63
2019-05-26T05:54:39.839Z,28.40
2019-05-26T05:55:19.638Z,29.50
2019-05-26T05:55:58.890Z,29.45
2019-05-26T05:56:38.219Z,29.50
2019-05-26T05:57:18.511Z,28.63
2019-05-26T05:57:58.048Z,28.73
2019-05-26T05:58:37.916Z,28.43
2019-05-26T05:59:17.728Z,28.23
2019-05-26T05:59:56.207Z,28.30
2019-05-26T06:00:36.196Z,28.20
2019-05-26T06:01:15.554Z,29.35
2019-05-26T06:01:54.988Z,28.00
2019-05-26T06:02:34.567Z,28.45
2019-05-26T06:03:13.795Z,28.12
2019-05-26T06:03:53.113Z,28.80
2019-05-26T06:04:32.094Z,27.43
2019-05-26T06:05:11.120Z,28.12
2019-05-26T06:05:49.580Z,27.80
2019-05-26T06:06:28.563Z,30.40
2019-05-26T06:07:07.622Z,29.97
2019-05-26T06:07:47.448Z,27.53
2019-05-26T06:08:26.964Z,26.77
2019-05-26T06:09:06.875Z,27.45
2019-05-26T06:09:45.507Z,28.57
2019-05-26T06:10:26.392Z,27.17
2019-05-26T06:11:15.884Z,27.35
2019-05-26T06:11:46.647Z,28.07
2019-05-26T06:12:25.716Z,28.27
2019-05-26T06:13:04.736Z,27.37
2019-05-26T06:13:44.474Z,29.18
2019-05-26T06:14:23.599Z,28.45
2019-05-26T06:15:02.648Z,27.50
2019-05-26T06:15:41.075Z,27.60
2019-05-26T06:16:20.023Z,27.98
2019-05-26T06:16:58.991Z,29.13
2019-05-26T06:17:37.482Z,28.65
2019-05-26T06:18:16.454Z,28.47
2019-05-26T06:18:55.463Z,29.30
2019-05-26T06:19:33.818Z,29.27
2019-05-26T06:20:12.798Z,30.00
2019-05-26T06:20:51.824Z,29.00
2019-05-26T06:21:30.357Z,28.43
2019-05-26T06:22:09.956Z,29.03
2019-05-26T06:22:48.891Z,30.07
2019-05-26T06:23:27.475Z,28.10
2019-05-26T06:24:06.467Z,29.63
2019-05-26T06:24:45.393Z,28.57
2019-05-26T06:25:23.841Z,28.43
2019-05-26T06:26:02.930Z,26.83
2019-05-26T06:26:42.011Z,27.73
2019-05-26T06:27:20.506Z,26.63
2019-05-26T06:27:59.594Z,27.83
2019-05-26T06:28:38.998Z,28.70
2019-05-26T06:29:17.432Z,27.60
2019-05-26T06:29:59.236Z,28.45
2019-05-26T06:30:36.839Z,27.80
2019-05-26T06:31:15.229Z,28.37
2019-05-26T06:31:54.545Z,28.75
2019-05-26T06:32:34.060Z,27.57
2019-05-26T06:33:12.599Z,28.83
2019-05-26T06:33:51.624Z,27.98
2019-05-26T06:34:30.655Z,30.10
2019-05-26T06:35:09.014Z,28.03
2019-05-26T06:35:48.016Z,27.43
2019-05-26T06:36:27.056Z,27.50
2019-05-26T06:37:05.534Z,28.03
2019-05-26T06:37:44.768Z,28.00
2019-05-26T06:38:23.761Z,27.47
2019-05-26T06:39:02.506Z,26.60
2019-05-26T06:39:41.918Z,28.12
2019-05-26T06:40:21.417Z,27.73
2019-05-26T06:41:00.968Z,26.33
2019-05-26T06:41:39.983Z,28.17
2019-05-26T06:42:19.070Z,28.23
2019-05-26T06:42:57.455Z,26.93
2019-05-26T06:43:36.664Z,27.23
2019-05-26T06:44:16.083Z,27.17
2019-05-26T06:44:54.711Z,27.87
2019-05-26T06:45:33.674Z,27.07
2019-05-26T06:46:12.704Z,27.70
2019-05-26T06:46:51.115Z,26.77
2019-05-26T06:47:30.756Z,27.13
2019-05-26T06:48:09.807Z,27.07
2019-05-26T06:48:49.616Z,27.20
2019-05-26T06:49:28.812Z,26.67
2019-05-26T06:50:09.271Z,26.60
2019-05-26T06:50:47.843Z,27.37
2019-05-26T06:51:27.147Z,25.97
2019-05-26T06:52:06.916Z,27.40
2019-05-26T06:52:45.522Z,27.23
2019-05-26T06:53:24.584Z,26.57
2019-05-26T06:54:03.643Z,26.57
2019-05-26T06:54:42.199Z,27.57
2019-05-26T06:55:21.750Z,25.67
2019-05-26T06:56:00.747Z,28.23
2019-05-26T06:56:39.334Z,25.50
2019-05-26T06:57:19.305Z,25.87
2019-05-26T06:57:58.345Z,26.43
2019-05-26T06:58:36.887Z,26.73
2019-05-26T06:59:16.604Z,26.23
2019-05-26T06:59:56.300Z,27.10
2019-05-26T07:00:35.339Z,25.37
2019-05-26T07:01:16.635Z,27.27
2019-05-26T07:01:56.083Z,26.13
2019-05-26T07:02:34.756Z,26.43
2019-05-26T07:03:13.795Z,25.50
2019-05-26T07:03:53.622Z,26.27
2019-05-26T07:04:32.569Z,26.53
2019-05-26T07:05:12.116Z,26.77
2019-05-26T07:05:51.240Z,26.07
2019-05-26T07:06:29.649Z,25.80
2019-05-26T07:07:08.762Z,25.90
2019-05-26T07:07:48.319Z,25.63
2019-05-26T07:08:26.769Z,25.40
2019-05-26T07:09:06.451Z,25.20
2019-05-26T07:09:45.499Z,26.83
2019-05-26T07:10:23.939Z,25.83
2019-05-26T07:11:03.107Z,25.40
2019-05-26T07:11:54.247Z,26.20
2019-05-26T07:12:22.524Z,25.57
2019-05-26T07:13:01.565Z,25.03
2019-05-26T07:13:40.721Z,25.23
2019-05-26T07:14:19.238Z,27.03
2019-05-26T07:14:58.490Z,26.00
2019-05-26T07:15:37.748Z,28.07
2019-05-26T07:16:16.308Z,25.13
2019-05-26T07:16:56.019Z,25.90
2019-05-26T07:17:35.728Z,26.90
2019-05-26T07:18:14.621Z,25.90
2019-05-26T07:18:54.531Z,24.97
2019-05-26T07:19:34.875Z,25.63
2019-05-26T07:20:14.150Z,26.07
2019-05-26T07:20:54.056Z,26.17
2019-05-26T07:21:33.812Z,25.20
2019-05-26T07:22:12.364Z,25.20
2019-05-26T07:22:51.435Z,25.53
2019-05-26T07:23:30.595Z,26.40
2019-05-26T07:24:09.116Z,27.00
2019-05-26T07:24:48.194Z,26.23
2019-05-26T07:25:27.267Z,26.97
2019-05-26T07:26:05.852Z,25.70
2019-05-26T07:26:44.931Z,27.10
2019-05-26T07:27:25.258Z,26.00
2019-05-26T07:28:04.890Z,27.03
2019-05-26T07:28:44.115Z,28.20
2019-05-26T07:29:23.202Z,27.97
2019-05-26T07:30:01.631Z,27.57
2019-05-26T07:30:40.831Z,26.73
2019-05-26T07:31:20.104Z,27.57
2019-05-26T07:31:58.605Z,29.20
2019-05-26T07:32:37.718Z,27.57
2019-05-26T07:33:17.414Z,26.83
2019-05-26T07:33:56.315Z,28.30
2019-05-26T07:34:35.930Z,28.00
2019-05-26T07:35:15.417Z,28.17
2019-05-26T07:35:53.829Z,27.30
2019-05-26T07:36:32.795Z,27.10
2019-05-26T07:37:11.776Z,27.97
2019-05-26T07:37:50.161Z,27.40
2019-05-26T07:38:29.122Z,27.97
2019-05-26T07:39:09.683Z,26.53
2019-05-26T07:39:48.046Z,26.70
2019-05-26T07:40:27.140Z,27.43
2019-05-26T07:41:06.112Z,26.80
2019-05-26T07:41:45.043Z,26.73
2019-05-26T07:42:24.177Z,26.73
2019-05-26T07:43:03.926Z,26.87
2019-05-26T07:43:42.392Z,26.27
2019-05-26T07:44:21.460Z,27.40
2019-05-26T07:45:00.454Z,27.10
2019-05-26T07:45:38.826Z,26.73
2019-05-26T07:46:19.070Z,26.93
2019-05-26T07:46:58.056Z,27.00
2019-05-26T07:47:36.483Z,26.97
2019-05-26T07:48:16.077Z,28.38
2019-05-26T07:48:55.178Z,26.90
2019-05-26T07:49:33.548Z,26.33
2019-05-26T07:50:12.535Z,25.43
2019-05-26T07:51:09.619Z,26.33
2019-05-26T07:51:48.043Z,26.07
2019-05-26T07:52:27.159Z,24.67
2019-05-26T07:53:07.182Z,25.87
2019-05-26T07:53:45.633Z,26.77
2019-05-26T07:54:25.890Z,26.20
2019-05-26T07:55:05.198Z,24.97
2019-05-26T07:55:43.587Z,25.73
2019-05-26T07:56:22.590Z,22.90
2019-05-26T07:57:01.781Z,24.20
2019-05-26T07:57:40.231Z,24.83
2019-05-26T07:58:19.232Z,25.00
2019-05-26T07:58:58.182Z,24.00
2019-05-26T07:59:36.606Z,25.17
2019-05-26T08:00:15.653Z,26.37
2019-05-26T08:00:54.636Z,24.97
2019-05-26T08:01:36.281Z,24.43
2019-05-26T08:02:13.444Z,25.57
2019-05-26T08:02:52.524Z,24.37
2019-05-26T08:03:31.019Z,22.83
2019-05-26T08:04:10.087Z,25.00
2019-05-26T08:04:49.256Z,23.37
2019-05-26T08:05:27.665Z,24.23
2019-05-26T08:06:06.771Z,24.00
2019-05-26T08:06:45.770Z,24.73
2019-05-26T08:07:24.127Z,24.30
2019-05-26T08:08:12.178Z,24.53
2019-05-26T08:08:43.571Z,24.73
2019-05-26T08:09:22.024Z,25.13
2019-05-26T08:10:03.987Z,23.80
2019-05-26T08:10:43.051Z,23.93
2019-05-26T08:11:21.595Z,24.90
2019-05-26T08:12:00.594Z,23.90
2019-05-26T08:12:40.888Z,24.70
2019-05-26T08:13:19.287Z,23.50
2019-05-26T08:13:58.304Z,25.43
2019-05-26T08:14:37.972Z,25.53
2019-05-26T08:15:17.151Z,24.00
2019-05-26T08:15:56.311Z,25.10
2019-05-26T08:16:35.337Z,24.50
2019-05-26T08:17:15.073Z,23.80
2019-05-26T08:17:54.079Z,24.60
2019-05-26T08:18:33.065Z,23.43
2019-05-26T08:19:11.553Z,23.97
2019-05-26T08:19:50.668Z,26.10
2019-05-26T08:20:29.686Z,25.40
2019-05-26T08:21:11.219Z,24.30
2019-05-26T08:21:50.239Z,23.90
2019-05-26T08:22:29.286Z,23.97
2019-05-26T08:23:07.812Z,26.03
2019-05-26T08:23:46.902Z,26.37
2019-05-26T08:24:27.728Z,25.00
2019-05-26T08:25:06.243Z,24.50
2019-05-26T08:25:45.287Z,25.20
2019-05-26T08:26:24.299Z,24.37
2019-05-26T08:27:02.659Z,24.33
2019-05-26T08:27:43.290Z,23.53
2019-05-26T08:28:22.328Z,24.20
2019-05-26T08:29:00.795Z,23.93
2019-05-26T08:29:39.920Z,26.07
2019-05-26T08:30:19.493Z,25.08
2019-05-26T08:30:57.934Z,24.00
2019-05-26T08:31:36.999Z,23.60
2019-05-26T08:32:16.139Z,23.93
2019-05-26T08:32:54.552Z,23.73
2019-05-26T08:33:33.636Z,22.43
2019-05-26T08:34:12.678Z,23.90
2019-05-26T08:34:51.204Z,24.47
2019-05-26T08:35:30.208Z,24.33
2019-05-26T08:36:09.307Z,23.90
2019-05-26T08:36:47.755Z,23.53
2019-05-26T08:37:26.773Z,24.10
2019-05-26T08:38:07.057Z,24.30
2019-05-26T08:38:45.399Z,23.77
2019-05-26T08:39:24.431Z,23.53
2019-05-26T08:40:20.494Z,23.40
2019-05-26T08:40:58.922Z,23.40
2019-05-26T08:41:40.447Z,23.33
2019-05-26T08:42:28.794Z,23.33